createdAt,value
2023-02-12T00:01:48.874Z,100659.63
2023-02-12T00:04:21.883Z,100650.81
2023-02-12T00:06:54.769Z,100642.06
2023-02-12T00:09:29.240Z,100650.09
2023-02-12T00:12:02.866Z,100656.22
2023-02-12T00:14:37.931Z,100657.00
2023-02-12T00:17:11.115Z,100660.44
2023-02-12T00:19:44.199Z,100664.03
2023-02-12T00:22:17.169Z,100658.78
2023-02-12T00:24:51.593Z,100655.25
2023-02-12T00:27:25.093Z,100656.09
2023-02-12T00:29:59.942Z,100648.31
2023-02-12T00:32:33.046Z,100645.66
2023-02-12T00:35:06.542Z,100652.66
2023-02-12T00:37:39.838Z,100648.38
2023-02-12T00:40:14.631Z,100645.59
2023-02-12T00:42:47.646Z,100643.75
2023-02-12T00:45:20.827Z,100644.69
2023-02-12T00:47:53.876Z,100634.22
2023-02-12T00:50:27.984Z,100639.31
2023-02-12T00:53:02.948Z,100643.59
2023-02-12T00:55:37.318Z,100634.84
2023-02-12T00:58:10.556Z,100632.34
2023-02-12T01:00:43.816Z,100627.00
2023-02-12T01:03:17.420Z,100621.84
2023-02-12T01:05:50.414Z,100614.06
2023-02-12T01:08:23.858Z,100616.47
2023-02-12T01:10:59.596Z,100615.63
2023-02-12T01:13:34.266Z,100618.41
2023-02-12T01:16:09.572Z,100617.34
2023-02-12T01:18:42.620Z,100611.19
2023-02-12T01:21:18.043Z,100605.19
2023-02-12T01:23:51.407Z,100594.88
2023-02-12T01:26:26.516Z,100599.97
2023-02-12T01:29:01.446Z,100591.13
2023-02-12T01:31:37.513Z,100585.97
2023-02-12T01:34:11.540Z,100587.84
2023-02-12T01:36:44.582Z,100583.28
2023-02-12T01:39:17.510Z,100580.59
2023-02-12T01:41:51.964Z,100586.69
2023-02-12T01:44:26.661Z,100576.16
2023-02-12T01:47:01.136Z,100578.69
2023-02-12T01:49:37.567Z,100573.47
2023-02-12T01:52:13.567Z,100571.78
2023-02-12T01:54:48.057Z,100572.63
2023-02-12T01:57:23.102Z,100574.53
2023-02-12T01:59:57.534Z,100572.63
2023-02-12T02:02:32.644Z,100569.19
2023-02-12T02:05:06.897Z,100571.00
2023-02-12T02:07:40.391Z,100565.72
2023-02-12T02:10:13.364Z,100575.41
2023-02-12T02:13:07.439Z,100574.47
2023-02-12T02:15:41.966Z,100576.16
2023-02-12T02:18:19.336Z,100571.78
2023-02-12T02:21:11.437Z,100575.25
2023-02-12T02:23:56.360Z,100571.88
2023-02-12T02:26:35.001Z,100574.41
2023-02-12T02:29:21.542Z,100572.63
2023-02-12T02:32:00.235Z,100586.69
2023-02-12T02:34:38.317Z,100576.41
2023-02-12T02:37:15.385Z,100581.56
2023-02-12T02:39:50.046Z,100583.25
2023-02-12T02:42:26.240Z,100575.34
2023-02-12T02:45:01.780Z,100586.53
2023-02-12T02:47:39.855Z,100584.03
2023-02-12T02:50:15.356Z,100580.66
2023-02-12T02:52:50.902Z,100585.03
2023-02-12T02:55:26.793Z,100581.44
2023-02-12T02:58:02.206Z,100588.38
2023-02-12T03:00:37.313Z,100581.47
2023-02-12T03:03:17.035Z,100589.28
2023-02-12T03:05:51.152Z,100591.88
2023-02-12T03:08:27.063Z,100595.53
2023-02-12T03:11:02.772Z,100586.22
2023-02-12T03:13:39.375Z,100590.63
2023-02-12T03:16:16.081Z,100580.22
2023-02-12T03:18:55.104Z,100582.00
2023-02-12T03:21:29.932Z,100587.22
2023-02-12T03:24:06.563Z,100591.53
2023-02-12T03:26:42.285Z,100585.44
2023-02-12T03:29:15.582Z,100583.66
2023-02-12T03:32:02.126Z,100580.31
2023-02-12T03:34:47.448Z,100581.13
2023-02-12T03:37:23.440Z,100575.78
2023-02-12T03:39:58.929Z,100568.78
2023-02-12T03:42:36.589Z,100568.81
2023-02-12T03:45:11.332Z,100563.81
2023-02-12T03:47:47.356Z,100562.06
2023-02-12T03:50:27.360Z,100566.25
2023-02-12T03:53:00.825Z,100564.50
2023-02-12T03:55:34.465Z,100567.28
2023-02-12T03:58:09.831Z,100562.78
2023-02-12T04:00:44.274Z,100558.66
2023-02-12T04:03:17.691Z,100557.84
2023-02-12T04:05:52.019Z,100558.81
2023-02-12T04:08:26.351Z,100554.44
2023-02-12T04:11:04.372Z,100553.59
2023-02-12T04:13:43.323Z,100555.22
2023-02-12T04:16:21.128Z,100553.41
2023-02-12T04:18:54.837Z,100550.00
2023-02-12T04:21:38.973Z,100548.41
2023-02-12T04:24:18.077Z,100544.09
2023-02-12T04:26:55.768Z,100546.56
2023-02-12T04:29:33.365Z,100550.69
2023-02-12T04:32:09.286Z,100548.94
2023-02-12T04:34:46.663Z,100551.59
2023-02-12T04:37:24.086Z,100549.88
2023-02-12T04:39:57.792Z,100560.38
2023-02-12T04:42:30.861Z,100548.09
2023-02-12T04:45:04.028Z,100562.88
2023-02-12T04:47:37.156Z,100564.50
2023-02-12T04:50:11.502Z,100566.03
2023-02-12T04:52:45.905Z,100576.44
2023-02-12T04:55:19.380Z,100589.50
2023-02-12T04:57:52.418Z,100585.09
2023-02-12T05:00:25.827Z,100584.06
2023-02-12T05:02:58.644Z,100583.13
2023-02-12T05:05:32.263Z,100589.97
2023-02-12T05:08:06.873Z,100589.03
2023-02-12T05:10:40.171Z,100591.59
2023-02-12T05:13:13.534Z,100595.91
2023-02-12T05:15:47.257Z,100591.63
2023-02-12T05:18:20.172Z,100593.50
2023-02-12T05:20:56.536Z,100597.00
2023-02-12T05:23:32.473Z,100602.28
2023-02-12T05:26:06.539Z,100595.34
2023-02-12T05:28:39.552Z,100603.91
2023-02-12T05:31:14.673Z,100610.06
2023-02-12T05:33:48.767Z,100612.47
2023-02-12T05:36:23.533Z,100619.38
2023-02-12T05:39:00.210Z,100621.16
2023-02-12T05:41:35.378Z,100629.00
2023-02-12T05:44:11.436Z,100627.22
2023-02-12T05:46:45.109Z,100628.94
2023-02-12T05:49:18.516Z,100631.38
2023-02-12T05:51:51.695Z,100647.19
2023-02-12T05:54:26.207Z,100650.59
2023-02-12T05:56:59.190Z,100646.94
2023-02-12T05:59:32.156Z,100652.03
2023-02-12T06:02:05.078Z,100655.50
2023-02-12T06:04:38.315Z,100655.44
2023-02-12T06:07:11.424Z,100661.50
2023-02-12T06:09:46.120Z,100660.59
2023-02-12T06:12:19.868Z,100665.84
2023-02-12T06:14:53.030Z,100662.53
2023-02-12T06:17:26.632Z,100670.22
2023-02-12T06:19:59.822Z,100671.75
2023-02-12T06:22:32.890Z,100665.66
2023-02-12T06:25:07.912Z,100665.59
2023-02-12T06:27:41.196Z,100665.53
2023-02-12T06:30:14.977Z,100668.44
2023-02-12T06:32:50.342Z,100673.56
2023-02-12T06:35:25.423Z,100668.38
2023-02-12T06:37:58.439Z,100669.06
2023-02-12T06:40:33.388Z,100676.09
2023-02-12T06:43:06.549Z,100671.59
2023-02-12T06:45:39.721Z,100676.69
2023-02-12T06:48:12.665Z,100676.63
2023-02-12T06:50:45.698Z,100679.13
2023-02-12T06:53:18.524Z,100692.09
2023-02-12T06:55:52.967Z,100697.19
2023-02-12T06:58:26.274Z,100702.28
2023-02-12T07:01:08.991Z,100697.06
2023-02-12T07:03:42.370Z,100701.41
2023-02-12T07:06:15.648Z,100697.00
2023-02-12T07:08:49.092Z,100692.84
2023-02-12T07:11:25.625Z,100696.06
2023-02-12T07:14:00.154Z,100700.34
2023-02-12T07:16:33.283Z,100695.88
2023-02-12T07:19:07.057Z,100696.66
2023-02-12T07:21:40.030Z,100695.63
2023-02-12T07:24:13.945Z,100703.13
2023-02-12T07:26:48.598Z,100702.03
2023-02-12T07:29:21.892Z,100706.22
2023-02-12T07:31:55.330Z,100706.13
2023-02-12T07:34:28.288Z,100696.47
2023-02-12T07:37:01.477Z,100692.22
2023-02-12T07:39:34.760Z,100704.19
2023-02-12T07:42:09.284Z,100697.19
2023-02-12T07:44:42.302Z,100698.81
2023-02-12T07:47:16.580Z,100701.38
2023-02-12T07:49:49.811Z,100706.50
2023-02-12T07:52:23.012Z,100702.94
2023-02-12T07:54:55.955Z,100705.47
2023-02-12T07:57:30.341Z,100705.41
2023-02-12T08:00:03.276Z,100711.31
2023-02-12T08:02:36.671Z,100713.03
2023-02-12T08:05:10.012Z,100710.28
2023-02-12T08:07:43.181Z,100717.22
2023-02-12T08:10:16.158Z,100710.09
2023-02-12T08:12:51.109Z,100716.09
2023-02-12T08:15:24.541Z,100712.50
2023-02-12T08:17:57.578Z,100717.63
2023-02-12T08:20:31.031Z,100718.41
2023-02-12T08:23:04.222Z,100724.38
2023-02-12T08:25:37.223Z,100725.03
2023-02-12T08:28:11.669Z,100726.63
2023-02-12T08:30:44.520Z,100729.03
2023-02-12T08:33:17.602Z,100737.56
2023-02-12T08:35:50.566Z,100745.25
2023-02-12T08:38:23.782Z,100740.66
2023-02-12T08:40:57.046Z,100734.41
2023-02-12T08:43:31.826Z,100746.47
2023-02-12T08:46:05.893Z,100748.09
2023-02-12T08:48:39.512Z,100751.47
2023-02-12T08:51:14.116Z,100750.50
2023-02-12T08:53:48.122Z,100752.16
2023-02-12T08:56:21.577Z,100761.50
2023-02-12T08:58:56.073Z,100769.16
2023-02-12T09:01:30.522Z,100772.47
2023-02-12T09:04:03.552Z,100776.47
2023-02-12T09:06:36.986Z,100777.19
2023-02-12T09:09:09.830Z,100776.00
2023-02-12T09:11:42.986Z,100776.47
2023-02-12T09:14:23.862Z,100772.50
2023-02-12T09:16:58.306Z,100778.09
2023-02-12T09:19:31.597Z,100781.28
2023-02-12T09:22:05.159Z,100773.03
2023-02-12T09:24:39.565Z,100770.94
2023-02-12T09:27:12.947Z,100767.19
2023-02-12T09:29:47.771Z,100779.22
2023-02-12T09:32:20.702Z,100774.53
2023-02-12T09:34:53.747Z,100774.19
2023-02-12T09:37:26.591Z,100773.16
2023-02-12T09:40:00.135Z,100784.34
2023-02-12T09:42:46.359Z,100774.22
2023-02-12T09:45:22.369Z,100774.34
2023-02-12T09:48:00.031Z,100768.00
2023-02-12T09:50:37.395Z,100772.69
2023-02-12T09:53:14.146Z,100773.38
2023-02-12T09:55:47.356Z,100776.72
2023-02-12T09:58:23.239Z,100769.91
2023-02-12T10:00:57.605Z,100765.22
2023-02-12T10:03:32.172Z,100767.53
2023-02-12T10:06:06.991Z,100762.13
2023-02-12T10:08:48.812Z,100764.13
2023-02-12T10:11:27.296Z,100759.69
2023-02-12T10:14:06.700Z,100766.97
2023-02-12T10:16:49.382Z,100767.28
2023-02-12T10:19:28.258Z,100757.47
2023-02-12T10:22:05.580Z,100758.25
2023-02-12T10:24:50.348Z,100763.78
2023-02-12T10:27:27.077Z,100769.56
2023-02-12T10:30:00.945Z,100770.91
2023-02-12T10:32:36.796Z,100767.53
2023-02-12T10:35:14.429Z,100760.78
2023-02-12T10:37:50.017Z,100759.72
2023-02-12T10:40:26.449Z,100755.13
2023-02-12T10:43:00.384Z,100749.03
2023-02-12T10:45:35.565Z,100747.28
2023-02-12T10:48:12.617Z,100754.94
2023-02-12T10:50:53.038Z,100751.84
2023-02-12T10:53:26.839Z,100762.75
2023-02-12T10:56:11.030Z,100755.44
2023-02-12T10:58:51.537Z,100755.81
2023-02-12T11:01:27.455Z,100757.41
2023-02-12T11:04:19.975Z,100762.63
2023-02-12T11:07:00.001Z,100760.56
2023-02-12T11:09:36.350Z,100761.88
2023-02-12T11:12:18.757Z,100767.47
2023-02-12T11:14:53.917Z,100772.97
2023-02-12T11:17:29.838Z,100774.78
2023-02-12T11:20:09.092Z,100773.53
2023-02-12T11:22:50.339Z,100771.44
2023-02-12T11:25:24.689Z,100769.59
2023-02-12T11:28:06.493Z,100766.22
2023-02-12T11:30:49.866Z,100770.72
2023-02-12T11:33:25.119Z,100772.41
2023-02-12T11:36:01.621Z,100772.47
2023-02-12T11:38:37.001Z,100769.13
2023-02-12T11:41:19.374Z,100777.13
2023-02-12T11:43:53.025Z,100780.34
2023-02-12T11:46:27.777Z,100763.97
2023-02-12T11:49:01.967Z,100774.69
2023-02-12T11:51:37.913Z,100774.69
2023-02-12T11:54:18.521Z,100777.50
2023-02-12T11:56:51.649Z,100769.50
2023-02-12T11:59:32.629Z,100772.06
2023-02-12T12:02:15.251Z,100770.63
2023-02-12T12:04:51.298Z,100776.84
2023-02-12T12:07:28.047Z,100772.72
2023-02-12T12:10:02.956Z,100775.66
2023-02-12T12:12:41.289Z,100780.41
2023-02-12T12:15:35.571Z,100786.09
2023-02-12T12:18:32.485Z,100782.25
2023-02-12T12:21:09.727Z,100785.56
2023-02-12T12:23:48.703Z,100780.53
2023-02-12T12:26:24.738Z,100784.78
2023-02-12T12:29:02.580Z,100787.28
2023-02-12T12:31:39.180Z,100793.81
2023-02-12T12:34:14.169Z,100792.97
2023-02-12T12:37:14.514Z,100799.38
2023-02-12T12:39:56.097Z,100795.59
2023-02-12T12:42:40.758Z,100805.19
2023-02-12T12:45:20.860Z,100802.63
2023-02-12T12:48:02.124Z,100808.28
2023-02-12T12:50:53.075Z,100810.88
2023-02-12T12:53:35.270Z,100821.31
2023-02-12T12:56:20.235Z,100814.53
2023-02-12T12:59:07.576Z,100817.28
2023-02-12T13:02:02.516Z,100816.44
2023-02-12T13:04:45.690Z,100825.81
2023-02-12T13:07:22.743Z,100821.78
2023-02-12T13:10:11.775Z,100828.94
2023-02-12T13:13:03.328Z,100835.63
2023-02-12T13:15:40.375Z,100836.78
2023-02-12T13:18:21.866Z,100835.81
2023-02-12T13:20:59.916Z,100844.38
2023-02-12T13:23:40.045Z,100845.13
2023-02-12T13:26:18.515Z,100844.84
2023-02-12T13:28:55.643Z,100847.56
2023-02-12T13:31:33.963Z,100849.88
2023-02-12T13:34:08.648Z,100851.53
2023-02-12T13:36:42.295Z,100853.69
2023-02-12T13:39:19.856Z,100864.56
2023-02-12T13:41:57.495Z,100869.25
2023-02-12T13:44:33.836Z,100875.53
2023-02-12T13:47:10.765Z,100876.41
2023-02-12T13:49:47.529Z,100875.13
2023-02-12T13:52:26.791Z,100873.03
2023-02-12T13:55:07.613Z,100882.72
2023-02-12T13:57:40.637Z,100875.53
2023-02-12T14:00:28.540Z,100877.72
2023-02-12T14:03:09.231Z,100875.94
2023-02-12T14:05:42.380Z,100873.63
2023-02-12T14:08:32.924Z,100886.03
2023-02-12T14:11:08.316Z,100880.88
2023-02-12T14:13:52.238Z,100894.31
2023-02-12T14:16:39.930Z,100891.38
2023-02-12T14:19:31.624Z,100892.91
2023-02-12T14:22:11.498Z,100898.88
2023-02-12T14:24:51.332Z,100908.06
2023-02-12T14:27:29.108Z,100901.38
2023-02-12T14:30:03.442Z,100908.00
2023-02-12T14:32:55.832Z,100905.94
2023-02-12T14:35:32.810Z,100914.84
2023-02-12T14:38:30.337Z,100919.22
2023-02-12T14:41:34.248Z,100919.03
2023-02-12T14:44:26.885Z,100924.91
2023-02-12T14:47:02.720Z,100928.13
2023-02-12T14:49:38.068Z,100926.50
2023-02-12T14:52:16.358Z,100946.03
2023-02-12T14:54:50.649Z,100951.84
2023-02-12T14:57:26.459Z,100950.09
2023-02-12T15:00:01.341Z,100952.25
2023-02-12T15:02:36.319Z,100954.81
2023-02-12T15:05:16.492Z,100957.41
2023-02-12T15:07:51.625Z,100963.19
2023-02-12T15:10:28.791Z,100976.88
2023-02-12T15:13:09.329Z,100971.00
2023-02-12T15:15:46.651Z,100986.09
2023-02-12T15:18:23.368Z,100986.72
2023-02-12T15:21:00.230Z,100997.69
2023-02-12T15:23:34.673Z,100999.88
2023-02-12T15:26:08.162Z,101006.19
2023-02-12T15:28:43.169Z,101011.03
2023-02-12T15:31:18.047Z,101019.81
2023-02-12T15:33:53.231Z,101022.28
2023-02-12T15:36:27.171Z,101024.41
2023-02-12T15:39:03.576Z,101035.38
2023-02-12T15:41:38.854Z,101041.56
2023-02-12T15:44:24.658Z,101050.75
2023-02-12T15:46:59.033Z,101059.84
2023-02-12T15:49:33.687Z,101069.13
2023-02-12T15:52:09.517Z,101074.97
2023-02-12T15:56:57.055Z,101081.78
2023-02-12T15:59:30.420Z,101087.41
2023-02-12T16:02:04.883Z,101082.59
2023-02-12T16:04:42.058Z,101111.88
2023-02-12T16:07:17.412Z,101112.06
2023-02-12T16:09:52.426Z,101110.50
2023-02-12T16:12:37.681Z,101116.28
2023-02-12T16:15:28.989Z,101102.94
2023-02-12T16:18:05.928Z,101088.81
2023-02-12T16:20:40.018Z,101140.25
2023-02-12T16:23:14.902Z,101146.91
2023-02-12T16:25:55.630Z,101149.72
2023-02-12T16:28:33.377Z,101152.53
2023-02-12T16:31:12.474Z,101150.09
2023-02-12T16:33:48.794Z,101167.44
2023-02-12T16:36:31.682Z,101178.81
2023-02-12T16:39:08.544Z,101188.72
2023-02-12T16:41:54.298Z,101195.56
2023-02-12T16:44:34.863Z,101196.28
2023-02-12T16:47:24.309Z,101204.31
2023-02-12T16:50:01.695Z,101207.03
2023-02-12T16:52:40.166Z,101211.41
2023-02-12T16:55:18.089Z,101208.94
2023-02-12T16:57:52.907Z,101216.81
2023-02-12T17:00:28.085Z,101222.09
2023-02-12T17:03:01.475Z,101235.63
2023-02-12T17:05:35.078Z,101216.56
2023-02-12T17:08:11.711Z,101235.72
2023-02-12T17:10:45.642Z,101244.66
2023-02-12T17:13:23.732Z,101239.38
2023-02-12T17:16:03.903Z,101248.25
2023-02-12T17:18:38.745Z,101244.72
2023-02-12T17:21:21.682Z,101243.94
2023-02-12T17:23:57.004Z,101255.50
2023-02-12T17:26:30.693Z,101252.13
2023-02-12T17:29:06.460Z,101273.28
2023-02-12T17:31:41.099Z,101264.59
2023-02-12T17:34:16.528Z,101278.41
2023-02-12T17:36:49.851Z,101273.09
2023-02-12T17:39:23.093Z,101288.13
2023-02-12T17:41:59.967Z,101287.22
2023-02-12T17:44:33.384Z,101289.13
2023-02-12T17:47:13.180Z,101292.81
2023-02-12T17:49:47.184Z,101304.22
2023-02-12T17:52:20.428Z,101301.38
2023-02-12T17:54:54.522Z,101302.59
2023-02-12T17:57:27.831Z,101306.22
2023-02-12T18:00:01.472Z,101314.19
2023-02-12T18:02:47.686Z,101309.22
2023-02-12T18:05:21.161Z,101311.75
2023-02-12T18:07:56.213Z,101315.09
2023-02-12T18:10:29.857Z,101322.94
2023-02-12T18:13:04.981Z,101326.59
2023-02-12T18:15:38.412Z,101338.94
2023-02-12T18:18:13.322Z,101333.56
2023-02-12T18:20:47.081Z,101340.72
2023-02-12T18:23:20.717Z,101333.09
2023-02-12T18:25:53.996Z,101349.78
2023-02-12T18:28:27.610Z,101301.38
2023-02-12T18:31:03.540Z,101358.59
2023-02-12T18:33:39.295Z,101359.50
2023-02-12T18:36:15.828Z,101359.69
2023-02-12T18:38:50.645Z,101349.31
2023-02-12T18:41:25.801Z,101368.50
2023-02-12T18:43:59.931Z,101368.59
2023-02-12T18:46:33.944Z,101349.66
2023-02-12T18:49:09.871Z,101371.31
2023-02-12T18:51:43.736Z,101368.81
2023-02-12T18:54:17.002Z,101379.38
2023-02-12T18:56:53.318Z,101385.69
2023-02-12T18:59:27.416Z,101380.50
2023-02-12T19:02:03.999Z,101390.13
2023-02-12T19:04:43.272Z,101392.03
2023-02-12T19:07:16.782Z,101391.19
2023-02-12T19:09:50.805Z,101397.38
2023-02-12T19:12:26.010Z,101397.38
2023-02-12T19:15:03.797Z,101401.81
2023-02-12T19:17:39.321Z,101401.81
2023-02-12T19:20:15.346Z,101400.97
2023-02-12T19:22:50.764Z,101408.00
2023-02-12T19:25:26.562Z,101414.19
2023-02-12T19:28:00.273Z,101422.19
2023-02-12T19:30:37.431Z,101411.69
2023-02-12T19:33:11.324Z,101415.34
2023-02-12T19:35:50.200Z,101414.56
2023-02-12T19:38:25.014Z,101413.88
2023-02-12T19:41:03.761Z,101417.41
2023-02-12T19:43:40.296Z,101416.69
2023-02-12T19:46:15.822Z,101429.78
2023-02-12T19:48:49.871Z,101434.28
2023-02-12T19:51:26.131Z,101438.69
2023-02-12T19:54:01.380Z,101428.31
2023-02-12T19:56:37.898Z,101447.56
2023-02-12T19:59:13.720Z,101440.59
2023-02-12T20:01:48.364Z,101448.59
2023-02-12T20:04:24.532Z,101437.28
2023-02-12T20:06:59.467Z,101449.63
2023-02-12T20:09:36.238Z,101444.53
2023-02-12T20:12:11.992Z,101436.00
2023-02-12T20:14:46.278Z,101450.88
2023-02-12T20:17:20.275Z,101450.16
2023-02-12T20:19:54.155Z,101452.94
2023-02-12T20:22:28.814Z,101446.00
2023-02-12T20:25:02.025Z,101449.59
2023-02-12T20:27:35.456Z,101454.97
2023-02-12T20:30:12.745Z,101455.28
2023-02-12T20:32:46.477Z,101455.31
2023-02-12T20:35:19.972Z,101460.59
2023-02-12T20:37:55.142Z,101459.78
2023-02-12T20:40:28.832Z,101461.63
2023-02-12T20:43:02.452Z,101453.03
2023-02-12T20:45:36.298Z,101460.03
2023-02-12T20:48:10.276Z,101467.13
2023-02-12T20:50:43.710Z,101463.72
2023-02-12T20:53:18.373Z,101463.78
2023-02-12T20:55:52.108Z,101419.81
2023-02-12T20:58:26.858Z,101479.81
2023-02-12T21:01:07.124Z,101486.03
2023-02-12T21:03:40.595Z,101491.28
2023-02-12T21:06:13.836Z,101483.50
2023-02-12T21:08:51.195Z,101493.06
2023-02-12T21:11:26.723Z,101472.38
2023-02-12T21:14:20.788Z,101486.38
2023-02-12T21:16:59.606Z,101502.94
2023-02-12T21:19:35.031Z,101505.66
2023-02-12T21:22:08.452Z,101497.91
2023-02-12T21:24:42.995Z,101504.09
2023-02-12T21:27:16.447Z,101504.06
2023-02-12T21:29:50.064Z,101511.16
2023-02-12T21:32:23.448Z,101519.13
2023-02-12T21:34:56.934Z,101518.44
2023-02-12T21:37:32.137Z,101518.34
2023-02-12T21:40:08.636Z,101520.94
2023-02-12T21:42:42.114Z,101526.22
2023-02-12T21:45:15.363Z,101532.38
2023-02-12T21:47:48.614Z,101528.06
2023-02-12T21:50:22.372Z,101535.97
2023-02-12T21:52:55.842Z,101543.88
2023-02-12T21:55:30.597Z,101538.59
2023-02-12T21:58:03.855Z,101541.22
2023-02-12T22:00:37.247Z,101546.59
2023-02-12T22:03:10.459Z,101550.97
2023-02-12T22:05:43.683Z,101539.59
2023-02-12T22:08:17.336Z,101557.81
2023-02-12T22:10:52.430Z,101556.22
2023-02-12T22:13:26.321Z,101561.53
2023-02-12T22:16:09.369Z,101550.91
2023-02-12T22:18:43.558Z,101563.06
2023-02-12T22:21:18.665Z,101565.69
2023-02-12T22:23:52.858Z,101559.53
2023-02-12T22:26:28.025Z,101563.00
2023-02-12T22:29:04.098Z,101563.84
2023-02-12T22:31:39.670Z,101555.09
2023-02-12T22:34:15.804Z,101552.63
2023-02-12T22:36:49.627Z,101541.28
2023-02-12T22:39:23.077Z,101564.78
2023-02-12T22:41:57.828Z,101544.81
2023-02-12T22:44:31.544Z,101555.13
2023-02-12T22:47:05.102Z,101560.38
2023-02-12T22:49:38.511Z,101563.03
2023-02-12T22:52:12.460Z,101566.59
2023-02-12T22:54:45.395Z,101557.94
2023-02-12T22:57:20.014Z,101557.97
2023-02-12T22:59:53.221Z,101512.06
2023-02-12T23:02:26.781Z,101566.88
2023-02-12T23:05:00.138Z,101569.59
2023-02-12T23:07:33.299Z,101561.78
2023-02-12T23:10:07.689Z,101558.25
2023-02-12T23:12:42.899Z,101567.19
2023-02-12T23:15:16.646Z,101574.25
2023-02-12T23:17:50.172Z,101570.75
2023-02-12T23:20:23.920Z,101572.50
2023-02-12T23:22:57.182Z,101570.75
2023-02-12T23:25:30.383Z,101570.75
2023-02-12T23:28:05.202Z,101569.94
2023-02-12T23:30:38.593Z,101565.63
2023-02-12T23:33:12.492Z,101558.59
2023-02-12T23:35:46.402Z,101549.81
2023-02-12T23:38:19.914Z,101546.31
2023-02-12T23:40:53.255Z,101485.56
2023-02-12T23:43:27.820Z,101549.88
2023-02-12T23:46:01.515Z,101544.81
2023-02-12T23:48:35.016Z,101558.78
2023-02-12T23:51:08.846Z,101567.66
2023-02-12T23:53:42.340Z,101559.91
2023-02-12T23:56:15.748Z,101571.31
2023-02-12T23:58:50.466Z,101564.41
